sensor_id;sensor_type;location;lat;lon;timestamp;P1;durP1;ratioP1;P2;durP2;ratioP2
56297;SDS011;42208;6.376;-10.782;2023-07-31T00:00:09;34.00;;;17.33;;
56297;SDS011;42208;6.376;-10.782;2023-07-31T00:02:38;31.20;;;15.48;;
56297;SDS011;42208;6.376;-10.782;2023-07-31T00:05:08;32.63;;;16.98;;
56297;SDS011;42208;6.376;-10.782;2023-07-31T00:07:37;34.20;;;16.67;;
56297;SDS011;42208;6.376;-10.782;2023-07-31T00:10:06;27.73;;;15.95;;
56297;SDS011;42208;6.376;-10.782;2023-07-31T00:12:34;33.20;;;15.18;;
56297;SDS011;42208;6.376;-10.782;2023-07-31T00:15:03;26.20;;;14.68;;
56297;SDS011;42208;6.376;-10.782;2023-07-31T00:17:32;31.20;;;15.10;;
56297;SDS011;42208;6.376;-10.782;2023-07-31T00:20:00;31.25;;;14.77;;
56297;SDS011;42208;6.376;-10.782;2023-07-31T00:22:29;25.02;;;13.07;;
56297;SDS011;42208;6.376;-10.782;2023-07-31T00:24:57;29.50;;;14.18;;
56297;SDS011;42208;6.376;-10.782;2023-07-31T00:27:26;27.75;;;13.60;;
56297;SDS011;42208;6.376;-10.782;2023-07-31T00:29:54;29.08;;;15.40;;
56297;SDS011;42208;6.376;-10.782;2023-07-31T00:32:22;22.25;;;14.30;;
56297;SDS011;42208;6.376;-10.782;2023-07-31T00:34:52;29.75;;;16.08;;
56297;SDS011;42208;6.376;-10.782;2023-07-31T00:37:20;39.28;;;17.60;;
56297;SDS011;42208;6.376;-10.782;2023-07-31T00:39:48;33.08;;;16.38;;
56297;SDS011;42208;6.376;-10.782;2023-07-31T00:42:17;33.63;;;16.98;;
56297;SDS011;42208;6.376;-10.782;2023-07-31T00:44:47;32.33;;;16.08;;
56297;SDS011;42208;6.376;-10.782;2023-07-31T00:47:16;26.20;;;15.50;;
56297;SDS011;42208;6.376;-10.782;2023-07-31T00:49:45;25.17;;;14.80;;
56297;SDS011;42208;6.376;-10.782;2023-07-31T00:52:13;23.50;;;13.90;;
56297;SDS011;42208;6.376;-10.782;2023-07-31T00:54:42;32.38;;;14.05;;
56297;SDS011;42208;6.376;-10.782;2023-07-31T00:57:10;20.02;;;12.85;;
56297;SDS011;42208;6.376;-10.782;2023-07-31T00:59:39;23.85;;;12.52;;
56297;SDS011;42208;6.376;-10.782;2023-07-31T01:02:07;24.77;;;12.32;;
56297;SDS011;42208;6.376;-10.782;2023-07-31T01:04:36;24.67;;;12.60;;
56297;SDS011;42208;6.376;-10.782;2023-07-31T01:12:14;21.52;;;13.95;;
56297;SDS011;42208;6.376;-10.782;2023-07-31T01:15:02;19.58;;;11.73;;
56297;SDS011;42208;6.376;-10.782;2023-07-31T01:17:31;24.95;;;12.85;;
56297;SDS011;42208;6.376;-10.782;2023-07-31T01:20:01;28.23;;;12.60;;
56297;SDS011;42208;6.376;-10.782;2023-07-31T01:25:55;24.02;;;13.07;;
56297;SDS011;42208;6.376;-10.782;2023-07-31T01:31:32;25.25;;;12.57;;
56297;SDS011;42208;6.376;-10.782;2023-07-31T01:36:43;20.05;;;12.25;;
56297;SDS011;42208;6.376;-10.782;2023-07-31T01:39:12;27.92;;;13.77;;
56297;SDS011;42208;6.376;-10.782;2023-07-31T01:41:40;20.30;;;13.55;;
56297;SDS011;42208;6.376;-10.782;2023-07-31T01:44:09;29.48;;;15.63;;
56297;SDS011;42208;6.376;-10.782;2023-07-31T01:46:37;26.13;;;14.68;;
56297;SDS011;42208;6.376;-10.782;2023-07-31T01:49:06;32.20;;;15.40;;
56297;SDS011;42208;6.376;-10.782;2023-07-31T01:51:34;30.45;;;14.07;;
56297;SDS011;42208;6.376;-10.782;2023-07-31T01:54:03;26.25;;;14.20;;
56297;SDS011;42208;6.376;-10.782;2023-07-31T01:56:32;28.70;;;14.82;;
56297;SDS011;42208;6.376;-10.782;2023-07-31T01:59:00;29.45;;;13.45;;
56297;SDS011;42208;6.376;-10.782;2023-07-31T02:01:29;30.95;;;14.68;;
56297;SDS011;42208;6.376;-10.782;2023-07-31T02:03:58;26.00;;;13.57;;
56297;SDS011;42208;6.376;-10.782;2023-07-31T02:06:26;27.45;;;13.70;;
56297;SDS011;42208;6.376;-10.782;2023-07-31T02:08:55;24.63;;;13.27;;
56297;SDS011;42208;6.376;-10.782;2023-07-31T02:11:23;22.50;;;13.80;;
56297;SDS011;42208;6.376;-10.782;2023-07-31T02:13:52;30.27;;;14.05;;
56297;SDS011;42208;6.376;-10.782;2023-07-31T02:16:20;24.42;;;14.45;;
56297;SDS011;42208;6.376;-10.782;2023-07-31T02:18:49;27.65;;;14.73;;
56297;SDS011;42208;6.376;-10.782;2023-07-31T02:21:18;24.38;;;12.57;;
56297;SDS011;42208;6.376;-10.782;2023-07-31T02:23:46;29.10;;;13.75;;
56297;SDS011;42208;6.376;-10.782;2023-07-31T02:26:14;27.23;;;13.25;;
56297;SDS011;42208;6.376;-10.782;2023-07-31T02:28:43;22.70;;;13.30;;
56297;SDS011;42208;6.376;-10.782;2023-07-31T02:31:12;28.52;;;14.05;;
56297;SDS011;42208;6.376;-10.782;2023-07-31T02:33:40;27.08;;;14.02;;
56297;SDS011;42208;6.376;-10.782;2023-07-31T02:36:09;20.95;;;12.65;;
56297;SDS011;42208;6.376;-10.782;2023-07-31T02:38:37;24.88;;;12.20;;
56297;SDS011;42208;6.376;-10.782;2023-07-31T02:41:06;24.00;;;14.35;;
56297;SDS011;42208;6.376;-10.782;2023-07-31T02:43:34;20.88;;;13.55;;
56297;SDS011;42208;6.376;-10.782;2023-07-31T02:46:03;23.05;;;13.18;;
56297;SDS011;42208;6.376;-10.782;2023-07-31T02:48:31;26.17;;;14.75;;
56297;SDS011;42208;6.376;-10.782;2023-07-31T02:51:00;31.77;;;15.40;;
56297;SDS011;42208;6.376;-10.782;2023-07-31T02:53:28;33.50;;;16.40;;
56297;SDS011;42208;6.376;-10.782;2023-07-31T02:55:56;26.77;;;15.00;;
56297;SDS011;42208;6.376;-10.782;2023-07-31T02:58:25;31.17;;;17.02;;
56297;SDS011;42208;6.376;-10.782;2023-07-31T03:00:53;26.95;;;16.05;;
56297;SDS011;42208;6.376;-10.782;2023-07-31T03:03:22;29.98;;;16.50;;
56297;SDS011;42208;6.376;-10.782;2023-07-31T03:05:54;32.97;;;16.00;;
56297;SDS011;42208;6.376;-10.782;2023-07-31T03:08:23;28.83;;;16.55;;
56297;SDS011;42208;6.376;-10.782;2023-07-31T03:10:52;23.77;;;14.98;;
56297;SDS011;42208;6.376;-10.782;2023-07-31T03:13:21;27.65;;;16.35;;
56297;SDS011;42208;6.376;-10.782;2023-07-31T03:15:50;29.58;;;15.40;;
56297;SDS011;42208;6.376;-10.782;2023-07-31T03:18:19;31.23;;;15.15;;
56297;SDS011;42208;6.376;-10.782;2023-07-31T03:20:47;25.75;;;16.60;;
56297;SDS011;42208;6.376;-10.782;2023-07-31T03:23:15;29.10;;;15.93;;
56297;SDS011;42208;6.376;-10.782;2023-07-31T03:25:57;27.92;;;15.80;;
56297;SDS011;42208;6.376;-10.782;2023-07-31T03:28:29;29.95;;;16.52;;
56297;SDS011;42208;6.376;-10.782;2023-07-31T03:30:58;28.15;;;16.38;;
56297;SDS011;42208;6.376;-10.782;2023-07-31T03:33:26;21.70;;;14.23;;
56297;SDS011;42208;6.376;-10.782;2023-07-31T03:35:55;28.48;;;16.00;;
56297;SDS011;42208;6.376;-10.782;2023-07-31T03:38:24;25.02;;;15.98;;
56297;SDS011;42208;6.376;-10.782;2023-07-31T03:40:53;24.77;;;15.10;;
56297;SDS011;42208;6.376;-10.782;2023-07-31T03:43:21;24.92;;;15.13;;
56297;SDS011;42208;6.376;-10.782;2023-07-31T03:45:49;29.92;;;16.30;;
56297;SDS011;42208;6.376;-10.782;2023-07-31T03:48:18;23.38;;;15.10;;
56297;SDS011;42208;6.376;-10.782;2023-07-31T03:50:46;27.98;;;16.23;;
56297;SDS011;42208;6.376;-10.782;2023-07-31T03:53:15;23.65;;;14.93;;
56297;SDS011;42208;6.376;-10.782;2023-07-31T03:58:20;23.20;;;16.05;;
56297;SDS011;42208;6.376;-10.782;2023-07-31T04:00:48;29.10;;;16.70;;
56297;SDS011;42208;6.376;-10.782;2023-07-31T04:03:17;28.15;;;17.92;;
56297;SDS011;42208;6.376;-10.782;2023-07-31T04:05:45;24.05;;;16.42;;
56297;SDS011;42208;6.376;-10.782;2023-07-31T04:08:13;32.95;;;18.17;;
56297;SDS011;42208;6.376;-10.782;2023-07-31T04:10:42;27.73;;;16.80;;
56297;SDS011;42208;6.376;-10.782;2023-07-31T04:13:10;25.83;;;16.83;;
56297;SDS011;42208;6.376;-10.782;2023-07-31T04:15:39;33.15;;;18.15;;
56297;SDS011;42208;6.376;-10.782;2023-07-31T04:18:07;27.83;;;16.67;;
56297;SDS011;42208;6.376;-10.782;2023-07-31T04:20:35;25.27;;;16.58;;
56297;SDS011;42208;6.376;-10.782;2023-07-31T04:23:04;26.30;;;17.05;;
56297;SDS011;42208;6.376;-10.782;2023-07-31T04:25:32;26.92;;;17.77;;
56297;SDS011;42208;6.376;-10.782;2023-07-31T04:28:01;29.85;;;18.42;;
56297;SDS011;42208;6.376;-10.782;2023-07-31T04:30:30;33.50;;;19.23;;
56297;SDS011;42208;6.376;-10.782;2023-07-31T04:32:58;40.97;;;23.58;;
56297;SDS011;42208;6.376;-10.782;2023-07-31T04:35:27;59.30;;;37.45;;
56297;SDS011;42208;6.376;-10.782;2023-07-31T04:37:55;42.30;;;25.67;;
56297;SDS011;42208;6.376;-10.782;2023-07-31T04:40:24;46.58;;;28.70;;
56297;SDS011;42208;6.376;-10.782;2023-07-31T04:42:52;35.65;;;21.40;;
56297;SDS011;42208;6.376;-10.782;2023-07-31T04:45:20;32.33;;;17.67;;
56297;SDS011;42208;6.376;-10.782;2023-07-31T04:47:49;31.88;;;17.55;;
56297;SDS011;42208;6.376;-10.782;2023-07-31T04:50:17;33.97;;;16.77;;
56297;SDS011;42208;6.376;-10.782;2023-07-31T04:52:45;29.27;;;17.08;;
56297;SDS011;42208;6.376;-10.782;2023-07-31T04:55:14;31.38;;;18.35;;
56297;SDS011;42208;6.376;-10.782;2023-07-31T04:57:42;31.98;;;17.25;;
56297;SDS011;42208;6.376;-10.782;2023-07-31T05:00:11;33.85;;;17.85;;
56297;SDS011;42208;6.376;-10.782;2023-07-31T05:02:39;28.65;;;14.75;;
56297;SDS011;42208;6.376;-10.782;2023-07-31T05:05:08;37.33;;;13.45;;
56297;SDS011;42208;6.376;-10.782;2023-07-31T05:07:36;30.48;;;12.80;;
56297;SDS011;42208;6.376;-10.782;2023-07-31T05:13:20;28.63;;;14.65;;
56297;SDS011;42208;6.376;-10.782;2023-07-31T05:15:48;29.50;;;14.57;;
56297;SDS011;42208;6.376;-10.782;2023-07-31T05:18:17;25.70;;;15.18;;
56297;SDS011;42208;6.376;-10.782;2023-07-31T05:20:46;24.30;;;15.05;;
56297;SDS011;42208;6.376;-10.782;2023-07-31T05:23:14;27.65;;;13.98;;
56297;SDS011;42208;6.376;-10.782;2023-07-31T05:25:42;21.90;;;13.80;;
56297;SDS011;42208;6.376;-10.782;2023-07-31T05:28:11;21.65;;;13.50;;
56297;SDS011;42208;6.376;-10.782;2023-07-31T05:30:40;24.95;;;13.93;;
56297;SDS011;42208;6.376;-10.782;2023-07-31T05:33:08;21.80;;;13.80;;
56297;SDS011;42208;6.376;-10.782;2023-07-31T05:35:40;22.80;;;12.70;;
56297;SDS011;42208;6.376;-10.782;2023-07-31T05:38:08;22.38;;;12.60;;
56297;SDS011;42208;6.376;-10.782;2023-07-31T05:40:37;23.38;;;13.00;;
56297;SDS011;42208;6.376;-10.782;2023-07-31T05:43:06;20.15;;;12.48;;
56297;SDS011;42208;6.376;-10.782;2023-07-31T05:45:35;17.13;;;12.27;;
56297;SDS011;42208;6.376;-10.782;2023-07-31T05:48:03;21.52;;;13.48;;
56297;SDS011;42208;6.376;-10.782;2023-07-31T05:50:32;20.77;;;12.35;;
56297;SDS011;42208;6.376;-10.782;2023-07-31T05:53:00;24.42;;;13.90;;
56297;SDS011;42208;6.376;-10.782;2023-07-31T05:55:29;21.17;;;12.32;;
56297;SDS011;42208;6.376;-10.782;2023-07-31T05:57:57;16.13;;;10.35;;
56297;SDS011;42208;6.376;-10.782;2023-07-31T06:00:27;18.27;;;9.43;;
56297;SDS011;42208;6.376;-10.782;2023-07-31T06:02:55;24.17;;;10.40;;
56297;SDS011;42208;6.376;-10.782;2023-07-31T06:05:24;21.20;;;10.65;;
56297;SDS011;42208;6.376;-10.782;2023-07-31T06:07:53;17.92;;;10.45;;
56297;SDS011;42208;6.376;-10.782;2023-07-31T06:10:21;24.08;;;11.15;;
56297;SDS011;42208;6.376;-10.782;2023-07-31T06:12:49;18.52;;;11.65;;
56297;SDS011;42208;6.376;-10.782;2023-07-31T06:15:18;22.05;;;12.95;;
56297;SDS011;42208;6.376;-10.782;2023-07-31T06:17:46;24.35;;;12.07;;
56297;SDS011;42208;6.376;-10.782;2023-07-31T06:20:15;21.50;;;11.18;;
56297;SDS011;42208;6.376;-10.782;2023-07-31T06:22:43;21.45;;;12.63;;
56297;SDS011;42208;6.376;-10.782;2023-07-31T06:25:12;21.00;;;12.35;;
56297;SDS011;42208;6.376;-10.782;2023-07-31T06:27:41;20.60;;;13.23;;
56297;SDS011;42208;6.376;-10.782;2023-07-31T06:30:10;24.25;;;13.68;;
56297;SDS011;42208;6.376;-10.782;2023-07-31T06:32:39;23.67;;;13.18;;
56297;SDS011;42208;6.376;-10.782;2023-07-31T06:35:08;23.58;;;14.77;;
56297;SDS011;42208;6.376;-10.782;2023-07-31T06:37:36;27.83;;;15.30;;
56297;SDS011;42208;6.376;-10.782;2023-07-31T06:40:05;24.50;;;14.35;;
56297;SDS011;42208;6.376;-10.782;2023-07-31T06:42:34;26.75;;;16.27;;
56297;SDS011;42208;6.376;-10.782;2023-07-31T06:45:03;26.83;;;16.27;;
56297;SDS011;42208;6.376;-10.782;2023-07-31T06:47:32;27.67;;;16.20;;
56297;SDS011;42208;6.376;-10.782;2023-07-31T06:50:00;27.13;;;17.13;;
56297;SDS011;42208;6.376;-10.782;2023-07-31T06:52:29;26.90;;;18.38;;
56297;SDS011;42208;6.376;-10.782;2023-07-31T06:55:00;27.85;;;18.77;;
56297;SDS011;42208;6.376;-10.782;2023-07-31T06:57:46;34.55;;;21.88;;
56297;SDS011;42208;6.376;-10.782;2023-07-31T07:00:15;33.67;;;21.85;;
56297;SDS011;42208;6.376;-10.782;2023-07-31T07:02:45;40.80;;;23.63;;
56297;SDS011;42208;6.376;-10.782;2023-07-31T07:05:14;32.58;;;18.98;;
56297;SDS011;42208;6.376;-10.782;2023-07-31T07:07:43;25.75;;;18.73;;
56297;SDS011;42208;6.376;-10.782;2023-07-31T07:10:12;28.90;;;17.73;;
56297;SDS011;42208;6.376;-10.782;2023-07-31T07:12:40;28.08;;;17.58;;
56297;SDS011;42208;6.376;-10.782;2023-07-31T07:15:09;29.10;;;17.25;;
56297;SDS011;42208;6.376;-10.782;2023-07-31T07:17:37;34.15;;;17.65;;
56297;SDS011;42208;6.376;-10.782;2023-07-31T07:20:06;29.83;;;17.50;;
56297;SDS011;42208;6.376;-10.782;2023-07-31T07:22:35;29.48;;;17.83;;
56297;SDS011;42208;6.376;-10.782;2023-07-31T07:25:04;26.30;;;17.95;;
56297;SDS011;42208;6.376;-10.782;2023-07-31T07:27:33;27.27;;;17.75;;
56297;SDS011;42208;6.376;-10.782;2023-07-31T07:30:01;27.52;;;18.05;;
56297;SDS011;42208;6.376;-10.782;2023-07-31T07:32:30;29.63;;;18.15;;
56297;SDS011;42208;6.376;-10.782;2023-07-31T07:34:59;30.02;;;19.45;;
56297;SDS011;42208;6.376;-10.782;2023-07-31T07:37:28;27.48;;;19.88;;
56297;SDS011;42208;6.376;-10.782;2023-07-31T07:39:58;26.73;;;18.08;;
56297;SDS011;42208;6.376;-10.782;2023-07-31T07:42:27;25.85;;;18.73;;
56297;SDS011;42208;6.376;-10.782;2023-07-31T07:44:56;27.85;;;16.65;;
56297;SDS011;42208;6.376;-10.782;2023-07-31T07:47:24;27.02;;;18.00;;
56297;SDS011;42208;6.376;-10.782;2023-07-31T07:49:55;36.42;;;18.52;;
56297;SDS011;42208;6.376;-10.782;2023-07-31T07:52:23;30.45;;;17.00;;
56297;SDS011;42208;6.376;-10.782;2023-07-31T07:54:52;32.33;;;19.92;;
56297;SDS011;42208;6.376;-10.782;2023-07-31T07:57:20;32.20;;;18.58;;
56297;SDS011;42208;6.376;-10.782;2023-07-31T07:59:49;35.33;;;19.35;;
56297;SDS011;42208;6.376;-10.782;2023-07-31T08:02:17;27.52;;;20.88;;
56297;SDS011;42208;6.376;-10.782;2023-07-31T08:04:47;30.48;;;16.92;;
56297;SDS011;42208;6.376;-10.782;2023-07-31T08:07:15;30.48;;;18.50;;
56297;SDS011;42208;6.376;-10.782;2023-07-31T08:09:44;25.30;;;17.05;;
56297;SDS011;42208;6.376;-10.782;2023-07-31T08:12:14;25.85;;;17.27;;
56297;SDS011;42208;6.376;-10.782;2023-07-31T08:14:43;33.10;;;17.27;;
56297;SDS011;42208;6.376;-10.782;2023-07-31T08:17:11;30.30;;;16.65;;
56297;SDS011;42208;6.376;-10.782;2023-07-31T08:19:40;25.35;;;16.45;;
56297;SDS011;42208;6.376;-10.782;2023-07-31T08:22:08;19.80;;;15.50;;
56297;SDS011;42208;6.376;-10.782;2023-07-31T08:24:37;23.05;;;15.35;;
56297;SDS011;42208;6.376;-10.782;2023-07-31T08:27:06;32.08;;;17.02;;
56297;SDS011;42208;6.376;-10.782;2023-07-31T08:29:35;30.23;;;17.73;;
56297;SDS011;42208;6.376;-10.782;2023-07-31T08:32:03;27.27;;;18.20;;
56297;SDS011;42208;6.376;-10.782;2023-07-31T08:34:32;26.13;;;15.48;;
56297;SDS011;42208;6.376;-10.782;2023-07-31T08:37:00;29.98;;;16.92;;
56297;SDS011;42208;6.376;-10.782;2023-07-31T08:39:30;23.85;;;16.55;;
56297;SDS011;42208;6.376;-10.782;2023-07-31T08:41:59;23.00;;;15.68;;
56297;SDS011;42208;6.376;-10.782;2023-07-31T08:44:29;22.00;;;15.07;;
56297;SDS011;42208;6.376;-10.782;2023-07-31T08:46:59;29.88;;;15.10;;
56297;SDS011;42208;6.376;-10.782;2023-07-31T08:49:27;26.02;;;13.15;;
56297;SDS011;42208;6.376;-10.782;2023-07-31T08:52:02;19.40;;;14.10;;
56297;SDS011;42208;6.376;-10.782;2023-07-31T08:54:31;22.30;;;13.73;;
56297;SDS011;42208;6.376;-10.782;2023-07-31T08:56:59;25.45;;;14.07;;
56297;SDS011;42208;6.376;-10.782;2023-07-31T08:59:29;17.27;;;11.98;;
56297;SDS011;42208;6.376;-10.782;2023-07-31T09:02:01;20.38;;;13.30;;
56297;SDS011;42208;6.376;-10.782;2023-07-31T09:04:33;22.50;;;14.23;;
56297;SDS011;42208;6.376;-10.782;2023-07-31T09:07:09;26.15;;;14.55;;
56297;SDS011;42208;6.376;-10.782;2023-07-31T09:09:40;29.73;;;15.57;;
56297;SDS011;42208;6.376;-10.782;2023-07-31T09:12:08;27.17;;;16.42;;
56297;SDS011;42208;6.376;-10.782;2023-07-31T09:14:37;29.42;;;15.57;;
56297;SDS011;42208;6.376;-10.782;2023-07-31T09:17:06;25.27;;;16.90;;
56297;SDS011;42208;6.376;-10.782;2023-07-31T09:19:35;28.10;;;15.18;;
56297;SDS011;42208;6.376;-10.782;2023-07-31T09:22:07;31.50;;;17.05;;
56297;SDS011;42208;6.376;-10.782;2023-07-31T09:24:36;32.33;;;19.45;;
56297;SDS011;42208;6.376;-10.782;2023-07-31T09:27:05;29.88;;;15.30;;
56297;SDS011;42208;6.376;-10.782;2023-07-31T09:29:34;35.75;;;20.15;;
56297;SDS011;42208;6.376;-10.782;2023-07-31T09:32:02;51.72;;;31.77;;
56297;SDS011;42208;6.376;-10.782;2023-07-31T09:34:38;43.63;;;23.52;;
56297;SDS011;42208;6.376;-10.782;2023-07-31T09:37:06;31.83;;;17.50;;
56297;SDS011;42208;6.376;-10.782;2023-07-31T09:39:47;27.98;;;16.25;;
56297;SDS011;42208;6.376;-10.782;2023-07-31T09:42:24;46.28;;;31.30;;
56297;SDS011;42208;6.376;-10.782;2023-07-31T09:44:54;30.15;;;20.00;;
56297;SDS011;42208;6.376;-10.782;2023-07-31T09:47:34;23.17;;;13.50;;
56297;SDS011;42208;6.376;-10.782;2023-07-31T09:50:07;35.55;;;17.75;;
56297;SDS011;42208;6.376;-10.782;2023-07-31T09:52:37;28.90;;;16.67;;
56297;SDS011;42208;6.376;-10.782;2023-07-31T09:55:06;28.70;;;16.52;;
56297;SDS011;42208;6.376;-10.782;2023-07-31T09:57:43;28.30;;;16.15;;
56297;SDS011;42208;6.376;-10.782;2023-07-31T10:00:16;27.85;;;14.88;;
56297;SDS011;42208;6.376;-10.782;2023-07-31T10:02:46;29.23;;;14.13;;
56297;SDS011;42208;6.376;-10.782;2023-07-31T10:05:16;21.73;;;12.45;;
56297;SDS011;42208;6.376;-10.782;2023-07-31T10:07:51;24.55;;;12.15;;
56297;SDS011;42208;6.376;-10.782;2023-07-31T10:10:22;24.92;;;12.45;;
56297;SDS011;42208;6.376;-10.782;2023-07-31T10:12:53;24.90;;;11.82;;
56297;SDS011;42208;6.376;-10.782;2023-07-31T10:15:23;19.00;;;11.18;;
56297;SDS011;42208;6.376;-10.782;2023-07-31T10:17:53;24.73;;;11.85;;
56297;SDS011;42208;6.376;-10.782;2023-07-31T10:20:23;23.63;;;14.23;;
56297;SDS011;42208;6.376;-10.782;2023-07-31T10:22:54;20.40;;;13.23;;
56297;SDS011;42208;6.376;-10.782;2023-07-31T10:25:27;18.63;;;12.40;;
56297;SDS011;42208;6.376;-10.782;2023-07-31T10:27:56;21.30;;;12.35;;
56297;SDS011;42208;6.376;-10.782;2023-07-31T10:30:27;24.08;;;16.02;;
56297;SDS011;42208;6.376;-10.782;2023-07-31T10:32:57;17.83;;;11.10;;
56297;SDS011;42208;6.376;-10.782;2023-07-31T10:35:27;16.67;;;11.98;;
56297;SDS011;42208;6.376;-10.782;2023-07-31T10:37:56;24.65;;;14.15;;
56297;SDS011;42208;6.376;-10.782;2023-07-31T10:40:38;20.42;;;10.70;;
56297;SDS011;42208;6.376;-10.782;2023-07-31T10:43:07;33.50;;;11.50;;
56297;SDS011;42208;6.376;-10.782;2023-07-31T10:45:39;26.25;;;16.55;;
56297;SDS011;42208;6.376;-10.782;2023-07-31T10:48:14;31.17;;;18.83;;
56297;SDS011;42208;6.376;-10.782;2023-07-31T10:50:50;26.98;;;15.30;;
56297;SDS011;42208;6.376;-10.782;2023-07-31T10:53:25;21.98;;;12.82;;
56297;SDS011;42208;6.376;-10.782;2023-07-31T10:55:58;30.35;;;13.48;;
56297;SDS011;42208;6.376;-10.782;2023-07-31T10:58:27;22.48;;;12.10;;
56297;SDS011;42208;6.376;-10.782;2023-07-31T11:00:57;28.50;;;12.40;;
56297;SDS011;42208;6.376;-10.782;2023-07-31T11:03:41;33.08;;;12.57;;
56297;SDS011;42208;6.376;-10.782;2023-07-31T11:06:12;28.75;;;13.88;;
56297;SDS011;42208;6.376;-10.782;2023-07-31T11:08:48;24.23;;;13.55;;
56297;SDS011;42208;6.376;-10.782;2023-07-31T11:11:19;23.40;;;12.60;;
56297;SDS011;42208;6.376;-10.782;2023-07-31T11:13:49;21.88;;;13.10;;
56297;SDS011;42208;6.376;-10.782;2023-07-31T11:16:20;24.20;;;12.98;;
56297;SDS011;42208;6.376;-10.782;2023-07-31T11:18:50;18.27;;;13.27;;
56297;SDS011;42208;6.376;-10.782;2023-07-31T11:21:21;22.45;;;13.52;;
56297;SDS011;42208;6.376;-10.782;2023-07-31T11:23:52;27.77;;;14.97;;
56297;SDS011;42208;6.376;-10.782;2023-07-31T11:26:29;23.15;;;13.00;;
56297;SDS011;42208;6.376;-10.782;2023-07-31T11:28:58;27.30;;;13.20;;
56297;SDS011;42208;6.376;-10.782;2023-07-31T11:31:27;22.52;;;12.40;;
56297;SDS011;42208;6.376;-10.782;2023-07-31T11:34:05;27.85;;;14.77;;
56297;SDS011;42208;6.376;-10.782;2023-07-31T11:36:39;21.33;;;13.38;;
56297;SDS011;42208;6.376;-10.782;2023-07-31T11:39:10;22.48;;;12.63;;
56297;SDS011;42208;6.376;-10.782;2023-07-31T11:41:42;20.50;;;12.18;;
56297;SDS011;42208;6.376;-10.782;2023-07-31T11:44:10;23.20;;;12.20;;
56297;SDS011;42208;6.376;-10.782;2023-07-31T11:46:56;24.52;;;11.75;;
56297;SDS011;42208;6.376;-10.782;2023-07-31T11:49:27;22.65;;;11.45;;
56297;SDS011;42208;6.376;-10.782;2023-07-31T11:51:55;24.67;;;13.00;;
56297;SDS011;42208;6.376;-10.782;2023-07-31T11:54:24;22.60;;;12.80;;
56297;SDS011;42208;6.376;-10.782;2023-07-31T11:56:53;20.63;;;11.50;;
56297;SDS011;42208;6.376;-10.782;2023-07-31T11:59:21;22.70;;;12.68;;
56297;SDS011;42208;6.376;-10.782;2023-07-31T12:01:50;20.92;;;12.50;;
56297;SDS011;42208;6.376;-10.782;2023-07-31T12:04:19;18.15;;;10.85;;
56297;SDS011;42208;6.376;-10.782;2023-07-31T12:06:48;23.63;;;11.52;;
56297;SDS011;42208;6.376;-10.782;2023-07-31T12:09:25;19.58;;;11.15;;
56297;SDS011;42208;6.376;-10.782;2023-07-31T12:11:53;19.60;;;11.52;;
56297;SDS011;42208;6.376;-10.782;2023-07-31T12:14:26;16.52;;;10.82;;
56297;SDS011;42208;6.376;-10.782;2023-07-31T12:16:56;29.55;;;11.73;;
56297;SDS011;42208;6.376;-10.782;2023-07-31T12:19:31;18.10;;;10.40;;
56297;SDS011;42208;6.376;-10.782;2023-07-31T12:22:00;27.83;;;11.27;;
56297;SDS011;42208;6.376;-10.782;2023-07-31T12:24:28;18.60;;;10.60;;
56297;SDS011;42208;6.376;-10.782;2023-07-31T12:26:56;16.73;;;10.73;;
56297;SDS011;42208;6.376;-10.782;2023-07-31T12:29:33;17.83;;;10.73;;
56297;SDS011;42208;6.376;-10.782;2023-07-31T12:32:22;19.63;;;10.60;;
56297;SDS011;42208;6.376;-10.782;2023-07-31T12:34:53;27.08;;;11.18;;
56297;SDS011;42208;6.376;-10.782;2023-07-31T12:37:21;25.63;;;10.95;;
56297;SDS011;42208;6.376;-10.782;2023-07-31T12:39:50;23.27;;;11.63;;
56297;SDS011;42208;6.376;-10.782;2023-07-31T12:42:19;21.42;;;10.98;;
56297;SDS011;42208;6.376;-10.782;2023-07-31T12:44:48;21.48;;;10.93;;
56297;SDS011;42208;6.376;-10.782;2023-07-31T12:47:16;22.40;;;12.27;;
56297;SDS011;42208;6.376;-10.782;2023-07-31T12:49:45;24.30;;;10.95;;
56297;SDS011;42208;6.376;-10.782;2023-07-31T12:52:14;20.55;;;11.75;;
56297;SDS011;42208;6.376;-10.782;2023-07-31T12:54:43;25.17;;;11.55;;
56297;SDS011;42208;6.376;-10.782;2023-07-31T12:57:11;26.10;;;12.18;;
56297;SDS011;42208;6.376;-10.782;2023-07-31T12:59:40;22.92;;;10.52;;
56297;SDS011;42208;6.376;-10.782;2023-07-31T13:02:08;22.90;;;10.70;;
56297;SDS011;42208;6.376;-10.782;2023-07-31T13:04:37;27.77;;;12.55;;
56297;SDS011;42208;6.376;-10.782;2023-07-31T13:07:06;20.00;;;12.52;;
56297;SDS011;42208;6.376;-10.782;2023-07-31T13:09:36;22.70;;;11.80;;
56297;SDS011;42208;6.376;-10.782;2023-07-31T13:12:04;20.45;;;12.68;;
56297;SDS011;42208;6.376;-10.782;2023-07-31T13:14:33;22.67;;;11.93;;
56297;SDS011;42208;6.376;-10.782;2023-07-31T13:17:02;19.30;;;11.80;;
56297;SDS011;42208;6.376;-10.782;2023-07-31T13:19:31;20.45;;;11.02;;
56297;SDS011;42208;6.376;-10.782;2023-07-31T13:21:59;18.23;;;10.93;;
56297;SDS011;42208;6.376;-10.782;2023-07-31T13:24:28;18.70;;;10.07;;
56297;SDS011;42208;6.376;-10.782;2023-07-31T13:26:56;20.20;;;10.57;;
56297;SDS011;42208;6.376;-10.782;2023-07-31T13:29:25;21.77;;;11.15;;
56297;SDS011;42208;6.376;-10.782;2023-07-31T13:31:58;18.50;;;10.13;;
56297;SDS011;42208;6.376;-10.782;2023-07-31T13:34:26;21.50;;;10.68;;
56297;SDS011;42208;6.376;-10.782;2023-07-31T13:36:58;17.08;;;10.00;;
56297;SDS011;42208;6.376;-10.782;2023-07-31T13:39:26;15.45;;;9.85;;
56297;SDS011;42208;6.376;-10.782;2023-07-31T13:41:55;14.88;;;9.40;;
56297;SDS011;42208;6.376;-10.782;2023-07-31T13:44:23;15.00;;;8.60;;
56297;SDS011;42208;6.376;-10.782;2023-07-31T13:46:52;15.90;;;9.88;;
56297;SDS011;42208;6.376;-10.782;2023-07-31T13:49:20;17.02;;;10.02;;
56297;SDS011;42208;6.376;-10.782;2023-07-31T13:51:49;17.42;;;9.80;;
56297;SDS011;42208;6.376;-10.782;2023-07-31T13:54:17;16.60;;;9.10;;
56297;SDS011;42208;6.376;-10.782;2023-07-31T13:56:46;12.48;;;9.20;;
56297;SDS011;42208;6.376;-10.782;2023-07-31T13:59:14;15.68;;;9.07;;
56297;SDS011;42208;6.376;-10.782;2023-07-31T14:01:43;16.70;;;9.43;;
56297;SDS011;42208;6.376;-10.782;2023-07-31T14:04:15;14.63;;;8.45;;
56297;SDS011;42208;6.376;-10.782;2023-07-31T14:06:43;14.68;;;8.73;;
56297;SDS011;42208;6.376;-10.782;2023-07-31T14:09:12;16.88;;;7.63;;
56297;SDS011;42208;6.376;-10.782;2023-07-31T14:11:41;19.08;;;10.25;;
56297;SDS011;42208;6.376;-10.782;2023-07-31T14:14:10;14.13;;;8.85;;
56297;SDS011;42208;6.376;-10.782;2023-07-31T14:16:38;19.95;;;11.93;;
56297;SDS011;42208;6.376;-10.782;2023-07-31T14:19:07;18.00;;;11.55;;
56297;SDS011;42208;6.376;-10.782;2023-07-31T14:21:36;16.63;;;9.93;;
56297;SDS011;42208;6.376;-10.782;2023-07-31T14:24:05;20.40;;;12.07;;
56297;SDS011;42208;6.376;-10.782;2023-07-31T14:26:33;35.70;;;19.80;;
56297;SDS011;42208;6.376;-10.782;2023-07-31T14:29:02;65.47;;;38.00;;
56297;SDS011;42208;6.376;-10.782;2023-07-31T14:31:30;21.35;;;12.05;;
56297;SDS011;42208;6.376;-10.782;2023-07-31T14:33:59;22.65;;;10.02;;
56297;SDS011;42208;6.376;-10.782;2023-07-31T14:36:28;20.10;;;10.13;;
56297;SDS011;42208;6.376;-10.782;2023-07-31T14:38:56;17.05;;;9.85;;
56297;SDS011;42208;6.376;-10.782;2023-07-31T14:41:25;17.55;;;9.75;;